sensor_id;sensor_type;location;lat;lon;timestamp;P1;durP1;ratioP1;P2;durP2;ratioP2
34035;SDS011;63481;52.588;22.472;2024-02-15T00:03:13;12.00;;;5.40;;
34035;SDS011;63481;52.588;22.472;2024-02-15T00:08:15;10.80;;;5.20;;
34035;SDS011;63481;52.588;22.472;2024-02-15T00:13:16;10.40;;;4.40;;
34035;SDS011;63481;52.588;22.472;2024-02-15T00:18:18;11.30;;;4.70;;
34035;SDS011;63481;52.588;22.472;2024-02-15T00:23:20;15.40;;;6.50;;
34035;SDS011;63481;52.588;22.472;2024-02-15T00:28:22;10.10;;;4.20;;
34035;SDS011;63481;52.588;22.472;2024-02-15T00:33:25;13.20;;;5.50;;
34035;SDS011;63481;52.588;22.472;2024-02-15T00:38:27;16.70;;;5.90;;
34035;SDS011;63481;52.588;22.472;2024-02-15T00:43:28;8.30;;;4.60;;
34035;SDS011;63481;52.588;22.472;2024-02-15T00:48:30;9.10;;;4.50;;
34035;SDS011;63481;52.588;22.472;2024-02-15T00:53:32;14.50;;;5.10;;
34035;SDS011;63481;52.588;22.472;2024-02-15T00:58:34;11.60;;;5.90;;
34035;SDS011;63481;52.588;22.472;2024-02-15T01:03:36;22.30;;;5.70;;
34035;SDS011;63481;52.588;22.472;2024-02-15T01:08:38;16.50;;;5.40;;
34035;SDS011;63481;52.588;22.472;2024-02-15T01:13:40;11.00;;;5.30;;
34035;SDS011;63481;52.588;22.472;2024-02-15T01:18:42;10.10;;;5.10;;
34035;SDS011;63481;52.588;22.472;2024-02-15T01:23:44;9.20;;;5.40;;
34035;SDS011;63481;52.588;22.472;2024-02-15T01:28:47;11.10;;;5.10;;
34035;SDS011;63481;52.588;22.472;2024-02-15T01:33:49;14.50;;;6.30;;
34035;SDS011;63481;52.588;22.472;2024-02-15T01:38:51;15.00;;;4.90;;
34035;SDS011;63481;52.588;22.472;2024-02-15T01:43:53;9.50;;;3.20;;
34035;SDS011;63481;52.588;22.472;2024-02-15T01:48:55;9.00;;;4.10;;
34035;SDS011;63481;52.588;22.472;2024-02-15T01:53:57;13.80;;;5.10;;
34035;SDS011;63481;52.588;22.472;2024-02-15T01:59:01;16.70;;;6.30;;
34035;SDS011;63481;52.588;22.472;2024-02-15T02:04:03;14.40;;;5.10;;
34035;SDS011;63481;52.588;22.472;2024-02-15T02:09:05;12.50;;;5.20;;
34035;SDS011;63481;52.588;22.472;2024-02-15T02:14:07;14.50;;;6.90;;
34035;SDS011;63481;52.588;22.472;2024-02-15T02:19:08;16.00;;;8.50;;
34035;SDS011;63481;52.588;22.472;2024-02-15T02:24:16;28.20;;;15.80;;
34035;SDS011;63481;52.588;22.472;2024-02-15T02:29:23;71.90;;;29.00;;
34035;SDS011;63481;52.588;22.472;2024-02-15T02:34:25;80.20;;;36.20;;
34035;SDS011;63481;52.588;22.472;2024-02-15T02:39:27;36.50;;;17.00;;
34035;SDS011;63481;52.588;22.472;2024-02-15T02:44:33;24.40;;;13.10;;
34035;SDS011;63481;52.588;22.472;2024-02-15T02:49:35;58.00;;;26.80;;
34035;SDS011;63481;52.588;22.472;2024-02-15T02:54:37;23.70;;;13.20;;
34035;SDS011;63481;52.588;22.472;2024-02-15T02:59:39;22.90;;;12.40;;
34035;SDS011;63481;52.588;22.472;2024-02-15T03:04:41;28.10;;;15.50;;
34035;SDS011;63481;52.588;22.472;2024-02-15T03:09:43;31.00;;;18.80;;
34035;SDS011;63481;52.588;22.472;2024-02-15T03:14:44;33.50;;;19.70;;
34035;SDS011;63481;52.588;22.472;2024-02-15T03:19:47;26.70;;;13.50;;
34035;SDS011;63481;52.588;22.472;2024-02-15T03:24:50;23.70;;;13.40;;
34035;SDS011;63481;52.588;22.472;2024-02-15T03:29:52;23.50;;;13.30;;
34035;SDS011;63481;52.588;22.472;2024-02-15T03:34:54;32.90;;;18.50;;
34035;SDS011;63481;52.588;22.472;2024-02-15T03:39:55;18.00;;;8.90;;
34035;SDS011;63481;52.588;22.472;2024-02-15T03:44:57;22.10;;;13.10;;
34035;SDS011;63481;52.588;22.472;2024-02-15T03:49:59;24.50;;;14.70;;
34035;SDS011;63481;52.588;22.472;2024-02-15T03:55:01;24.50;;;12.90;;
34035;SDS011;63481;52.588;22.472;2024-02-15T04:00:03;17.30;;;8.90;;
34035;SDS011;63481;52.588;22.472;2024-02-15T04:05:11;22.10;;;9.20;;
34035;SDS011;63481;52.588;22.472;2024-02-15T04:10:13;15.90;;;7.90;;
34035;SDS011;63481;52.588;22.472;2024-02-15T04:15:15;15.50;;;7.10;;
34035;SDS011;63481;52.588;22.472;2024-02-15T04:20:18;14.30;;;7.10;;
34035;SDS011;63481;52.588;22.472;2024-02-15T04:25:20;17.40;;;8.20;;
34035;SDS011;63481;52.588;22.472;2024-02-15T04:30:24;14.10;;;8.00;;
34035;SDS011;63481;52.588;22.472;2024-02-15T04:35:26;14.50;;;6.80;;
34035;SDS011;63481;52.588;22.472;2024-02-15T04:40:29;11.90;;;5.50;;
34035;SDS011;63481;52.588;22.472;2024-02-15T04:45:31;9.50;;;4.10;;
34035;SDS011;63481;52.588;22.472;2024-02-15T04:50:33;13.60;;;5.50;;
34035;SDS011;63481;52.588;22.472;2024-02-15T04:55:35;15.40;;;5.10;;
34035;SDS011;63481;52.588;22.472;2024-02-15T05:00:36;15.40;;;6.20;;
34035;SDS011;63481;52.588;22.472;2024-02-15T05:05:38;13.10;;;5.40;;
34035;SDS011;63481;52.588;22.472;2024-02-15T05:10:40;8.30;;;4.90;;
34035;SDS011;63481;52.588;22.472;2024-02-15T05:15:42;20.80;;;5.40;;
34035;SDS011;63481;52.588;22.472;2024-02-15T05:20:43;12.40;;;5.20;;
34035;SDS011;63481;52.588;22.472;2024-02-15T05:25:45;8.40;;;4.50;;
34035;SDS011;63481;52.588;22.472;2024-02-15T05:30:47;19.40;;;5.10;;
34035;SDS011;63481;52.588;22.472;2024-02-15T05:35:49;11.50;;;4.80;;
34035;SDS011;63481;52.588;22.472;2024-02-15T05:40:52;11.60;;;4.40;;
34035;SDS011;63481;52.588;22.472;2024-02-15T05:45:54;12.30;;;4.60;;
34035;SDS011;63481;52.588;22.472;2024-02-15T05:50:56;10.50;;;4.60;;
34035;SDS011;63481;52.588;22.472;2024-02-15T05:55:58;9.60;;;4.40;;
34035;SDS011;63481;52.588;22.472;2024-02-15T06:01:01;11.20;;;5.40;;
34035;SDS011;63481;52.588;22.472;2024-02-15T06:06:04;13.80;;;5.70;;
34035;SDS011;63481;52.588;22.472;2024-02-15T06:11:09;10.50;;;5.40;;
34035;SDS011;63481;52.588;22.472;2024-02-15T06:16:11;15.00;;;5.10;;
34035;SDS011;63481;52.588;22.472;2024-02-15T06:21:13;13.10;;;5.60;;
34035;SDS011;63481;52.588;22.472;2024-02-15T06:26:15;9.10;;;4.70;;
34035;SDS011;63481;52.588;22.472;2024-02-15T06:31:17;11.30;;;5.60;;
34035;SDS011;63481;52.588;22.472;2024-02-15T06:36:52;13.50;;;4.60;;
34035;SDS011;63481;52.588;22.472;2024-02-15T06:42:14;12.00;;;5.20;;
34035;SDS011;63481;52.588;22.472;2024-02-15T06:47:21;14.90;;;5.10;;
34035;SDS011;63481;52.588;22.472;2024-02-15T06:52:23;8.60;;;4.00;;
34035;SDS011;63481;52.588;22.472;2024-02-15T06:57:25;16.70;;;6.10;;
34035;SDS011;63481;52.588;22.472;2024-02-15T07:02:27;10.40;;;4.60;;
34035;SDS011;63481;52.588;22.472;2024-02-15T07:07:30;6.50;;;3.90;;
34035;SDS011;63481;52.588;22.472;2024-02-15T07:12:33;11.40;;;5.00;;
34035;SDS011;63481;52.588;22.472;2024-02-15T07:17:37;14.60;;;5.30;;
34035;SDS011;63481;52.588;22.472;2024-02-15T07:22:39;10.30;;;4.30;;
34035;SDS011;63481;52.588;22.472;2024-02-15T07:27:41;7.00;;;3.30;;
34035;SDS011;63481;52.588;22.472;2024-02-15T07:32:43;10.20;;;4.20;;
34035;SDS011;63481;52.588;22.472;2024-02-15T07:37:52;12.00;;;4.60;;
34035;SDS011;63481;52.588;22.472;2024-02-15T07:42:56;8.70;;;4.00;;
34035;SDS011;63481;52.588;22.472;2024-02-15T07:47:59;14.50;;;5.10;;
34035;SDS011;63481;52.588;22.472;2024-02-15T07:53:02;7.70;;;3.60;;
34035;SDS011;63481;52.588;22.472;2024-02-15T07:58:04;12.80;;;3.70;;
34035;SDS011;63481;52.588;22.472;2024-02-15T08:03:06;9.60;;;3.60;;
34035;SDS011;63481;52.588;22.472;2024-02-15T08:08:09;15.20;;;4.70;;
34035;SDS011;63481;52.588;22.472;2024-02-15T08:13:10;9.40;;;3.90;;
34035;SDS011;63481;52.588;22.472;2024-02-15T08:18:12;6.30;;;3.70;;
34035;SDS011;63481;52.588;22.472;2024-02-15T08:23:14;7.10;;;3.50;;
34035;SDS011;63481;52.588;22.472;2024-02-15T08:28:15;6.20;;;3.50;;
34035;SDS011;63481;52.588;22.472;2024-02-15T08:33:17;13.90;;;4.90;;
34035;SDS011;63481;52.588;22.472;2024-02-15T08:38:23;5.60;;;2.80;;
34035;SDS011;63481;52.588;22.472;2024-02-15T08:43:25;8.90;;;4.20;;
34035;SDS011;63481;52.588;22.472;2024-02-15T08:48:27;8.10;;;4.30;;
34035;SDS011;63481;52.588;22.472;2024-02-15T08:53:29;7.20;;;3.80;;
34035;SDS011;63481;52.588;22.472;2024-02-15T08:58:30;6.60;;;3.30;;
34035;SDS011;63481;52.588;22.472;2024-02-15T09:03:32;7.10;;;3.20;;
34035;SDS011;63481;52.588;22.472;2024-02-15T09:08:34;8.30;;;3.50;;
34035;SDS011;63481;52.588;22.472;2024-02-15T09:13:36;9.10;;;3.30;;
34035;SDS011;63481;52.588;22.472;2024-02-15T09:18:40;5.30;;;2.60;;
34035;SDS011;63481;52.588;22.472;2024-02-15T09:23:46;9.40;;;3.20;;
34035;SDS011;63481;52.588;22.472;2024-02-15T09:28:48;6.50;;;2.90;;
34035;SDS011;63481;52.588;22.472;2024-02-15T09:33:50;8.80;;;3.60;;
34035;SDS011;63481;52.588;22.472;2024-02-15T09:38:52;6.90;;;3.40;;
34035;SDS011;63481;52.588;22.472;2024-02-15T09:43:54;8.90;;;3.50;;
34035;SDS011;63481;52.588;22.472;2024-02-15T09:48:55;8.90;;;4.00;;
34035;SDS011;63481;52.588;22.472;2024-02-15T09:54:01;10.70;;;3.80;;
34035;SDS011;63481;52.588;22.472;2024-02-15T09:59:03;11.20;;;4.60;;
34035;SDS011;63481;52.588;22.472;2024-02-15T10:04:05;6.50;;;3.30;;
34035;SDS011;63481;52.588;22.472;2024-02-15T10:09:27;5.20;;;3.50;;
34035;SDS011;63481;52.588;22.472;2024-02-15T10:14:32;8.60;;;4.30;;
34035;SDS011;63481;52.588;22.472;2024-02-15T10:19:37;8.20;;;3.40;;
34035;SDS011;63481;52.588;22.472;2024-02-15T10:24:40;5.80;;;2.90;;
34035;SDS011;63481;52.588;22.472;2024-02-15T10:29:42;11.50;;;4.40;;
34035;SDS011;63481;52.588;22.472;2024-02-15T10:34:44;9.90;;;3.10;;
34035;SDS011;63481;52.588;22.472;2024-02-15T10:39:46;28.70;;;11.10;;
34035;SDS011;63481;52.588;22.472;2024-02-15T10:45:07;28.40;;;13.50;;
34035;SDS011;63481;52.588;22.472;2024-02-15T10:50:12;64.30;;;29.80;;
34035;SDS011;63481;52.588;22.472;2024-02-15T10:55:14;35.40;;;16.40;;
34035;SDS011;63481;52.588;22.472;2024-02-15T11:00:21;27.10;;;11.40;;
34035;SDS011;63481;52.588;22.472;2024-02-15T11:05:27;27.70;;;14.40;;
34035;SDS011;63481;52.588;22.472;2024-02-15T11:10:33;16.40;;;7.30;;
34035;SDS011;63481;52.588;22.472;2024-02-15T11:15:46;12.00;;;6.20;;
34035;SDS011;63481;52.588;22.472;2024-02-15T11:20:50;15.50;;;6.40;;
34035;SDS011;63481;52.588;22.472;2024-02-15T11:25:54;15.20;;;8.70;;
34035;SDS011;63481;52.588;22.472;2024-02-15T11:30:57;19.40;;;8.60;;
34035;SDS011;63481;52.588;22.472;2024-02-15T11:36:06;10.80;;;6.00;;
34035;SDS011;63481;52.588;22.472;2024-02-15T11:41:13;10.60;;;6.00;;
34035;SDS011;63481;52.588;22.472;2024-02-15T11:46:20;28.00;;;8.40;;
34035;SDS011;63481;52.588;22.472;2024-02-15T11:51:26;12.80;;;6.60;;
34035;SDS011;63481;52.588;22.472;2024-02-15T11:56:33;14.30;;;6.10;;
34035;SDS011;63481;52.588;22.472;2024-02-15T12:01:53;11.40;;;4.80;;
34035;SDS011;63481;52.588;22.472;2024-02-15T12:07:16;16.40;;;8.50;;
34035;SDS011;63481;52.588;22.472;2024-02-15T12:12:36;15.50;;;7.60;;
34035;SDS011;63481;52.588;22.472;2024-02-15T12:18:13;18.30;;;7.80;;
34035;SDS011;63481;52.588;22.472;2024-02-15T12:23:34;13.50;;;7.10;;
34035;SDS011;63481;52.588;22.472;2024-02-15T12:28:37;34.10;;;16.00;;
34035;SDS011;63481;52.588;22.472;2024-02-15T12:33:40;31.30;;;15.60;;
34035;SDS011;63481;52.588;22.472;2024-02-15T12:38:42;26.40;;;13.40;;
34035;SDS011;63481;52.588;22.472;2024-02-15T12:43:44;21.10;;;9.80;;
34035;SDS011;63481;52.588;22.472;2024-02-15T12:48:46;16.50;;;7.30;;
34035;SDS011;63481;52.588;22.472;2024-02-15T12:53:48;14.70;;;6.10;;
34035;SDS011;63481;52.588;22.472;2024-02-15T12:58:49;14.10;;;7.00;;
34035;SDS011;63481;52.588;22.472;2024-02-15T13:03:51;8.00;;;3.90;;
34035;SDS011;63481;52.588;22.472;2024-02-15T13:08:53;10.60;;;5.30;;
34035;SDS011;63481;52.588;22.472;2024-02-15T13:13:55;13.50;;;3.50;;
34035;SDS011;63481;52.588;22.472;2024-02-15T13:18:58;6.10;;;2.70;;
34035;SDS011;63481;52.588;22.472;2024-02-15T13:24:00;7.90;;;3.60;;
34035;SDS011;63481;52.588;22.472;2024-02-15T13:29:06;6.30;;;2.60;;
34035;SDS011;63481;52.588;22.472;2024-02-15T13:34:07;19.40;;;8.50;;
34035;SDS011;63481;52.588;22.472;2024-02-15T13:39:09;17.70;;;8.20;;
34035;SDS011;63481;52.588;22.472;2024-02-15T13:44:11;22.20;;;9.20;;
34035;SDS011;63481;52.588;22.472;2024-02-15T13:49:13;14.30;;;8.50;;
34035;SDS011;63481;52.588;22.472;2024-02-15T13:54:14;18.70;;;5.60;;
34035;SDS011;63481;52.588;22.472;2024-02-15T13:59:16;10.90;;;5.70;;
34035;SDS011;63481;52.588;22.472;2024-02-15T14:04:18;15.00;;;6.80;;
34035;SDS011;63481;52.588;22.472;2024-02-15T14:09:19;15.30;;;7.80;;
34035;SDS011;63481;52.588;22.472;2024-02-15T14:14:21;15.30;;;8.60;;
34035;SDS011;63481;52.588;22.472;2024-02-15T14:19:23;14.00;;;5.20;;
34035;SDS011;63481;52.588;22.472;2024-02-15T14:24:27;9.40;;;4.50;;
34035;SDS011;63481;52.588;22.472;2024-02-15T14:29:29;8.60;;;4.00;;
34035;SDS011;63481;52.588;22.472;2024-02-15T14:34:34;8.50;;;4.50;;
34035;SDS011;63481;52.588;22.472;2024-02-15T14:39:37;12.00;;;5.20;;
34035;SDS011;63481;52.588;22.472;2024-02-15T14:44:39;9.20;;;4.40;;
34035;SDS011;63481;52.588;22.472;2024-02-15T14:49:41;15.40;;;6.50;;
34035;SDS011;63481;52.588;22.472;2024-02-15T14:54:43;14.50;;;5.10;;
34035;SDS011;63481;52.588;22.472;2024-02-15T14:59:44;12.40;;;5.00;;
34035;SDS011;63481;52.588;22.472;2024-02-15T15:04:46;9.90;;;4.40;;
34035;SDS011;63481;52.588;22.472;2024-02-15T15:10:07;15.00;;;7.10;;
34035;SDS011;63481;52.588;22.472;2024-02-15T15:15:28;8.70;;;4.90;;
34035;SDS011;63481;52.588;22.472;2024-02-15T15:20:30;9.00;;;4.40;;
34035;SDS011;63481;52.588;22.472;2024-02-15T15:25:34;9.10;;;3.90;;
34035;SDS011;63481;52.588;22.472;2024-02-15T15:30:38;11.00;;;4.40;;
34035;SDS011;63481;52.588;22.472;2024-02-15T15:35:40;8.60;;;4.30;;
34035;SDS011;63481;52.588;22.472;2024-02-15T15:40:42;9.10;;;4.50;;
34035;SDS011;63481;52.588;22.472;2024-02-15T15:45:44;10.60;;;5.50;;
34035;SDS011;63481;52.588;22.472;2024-02-15T15:50:46;13.40;;;5.50;;
34035;SDS011;63481;52.588;22.472;2024-02-15T15:55:49;7.30;;;3.90;;
34035;SDS011;63481;52.588;22.472;2024-02-15T16:00:51;9.80;;;4.00;;
34035;SDS011;63481;52.588;22.472;2024-02-15T16:05:53;7.40;;;3.30;;
34035;SDS011;63481;52.588;22.472;2024-02-15T16:10:54;7.60;;;3.90;;
34035;SDS011;63481;52.588;22.472;2024-02-15T16:15:58;13.80;;;6.80;;
34035;SDS011;63481;52.588;22.472;2024-02-15T16:20:59;27.80;;;9.00;;
34035;SDS011;63481;52.588;22.472;2024-02-15T16:26:01;9.50;;;4.80;;
34035;SDS011;63481;52.588;22.472;2024-02-15T16:31:03;9.40;;;4.20;;
34035;SDS011;63481;52.588;22.472;2024-02-15T16:36:05;11.40;;;4.70;;
34035;SDS011;63481;52.588;22.472;2024-02-15T16:41:08;7.10;;;3.00;;
34035;SDS011;63481;52.588;22.472;2024-02-15T16:46:10;4.40;;;2.50;;
34035;SDS011;63481;52.588;22.472;2024-02-15T16:51:14;6.10;;;3.00;;
34035;SDS011;63481;52.588;22.472;2024-02-15T16:56:19;5.80;;;2.70;;
34035;SDS011;63481;52.588;22.472;2024-02-15T17:01:26;6.70;;;3.30;;
34035;SDS011;63481;52.588;22.472;2024-02-15T17:06:28;4.90;;;2.60;;
34035;SDS011;63481;52.588;22.472;2024-02-15T17:11:30;7.90;;;3.70;;
34035;SDS011;63481;52.588;22.472;2024-02-15T17:16:32;13.40;;;3.60;;
34035;SDS011;63481;52.588;22.472;2024-02-15T17:21:34;5.20;;;3.00;;
34035;SDS011;63481;52.588;22.472;2024-02-15T17:26:45;6.50;;;3.10;;
34035;SDS011;63481;52.588;22.472;2024-02-15T17:31:51;7.80;;;3.90;;
34035;SDS011;63481;52.588;22.472;2024-02-15T17:36:52;13.70;;;6.20;;
34035;SDS011;63481;52.588;22.472;2024-02-15T17:41:54;17.10;;;8.20;;
34035;SDS011;63481;52.588;22.472;2024-02-15T17:46:56;10.00;;;4.50;;
34035;SDS011;63481;52.588;22.472;2024-02-15T17:51:58;12.10;;;4.40;;
34035;SDS011;63481;52.588;22.472;2024-02-15T17:57:00;10.30;;;4.70;;
34035;SDS011;63481;52.588;22.472;2024-02-15T18:02:02;10.90;;;5.40;;
34035;SDS011;63481;52.588;22.472;2024-02-15T18:07:04;15.70;;;6.70;;
34035;SDS011;63481;52.588;22.472;2024-02-15T18:12:06;17.20;;;8.00;;
34035;SDS011;63481;52.588;22.472;2024-02-15T18:17:08;12.60;;;5.40;;
34035;SDS011;63481;52.588;22.472;2024-02-15T18:22:10;10.80;;;5.60;;
34035;SDS011;63481;52.588;22.472;2024-02-15T18:27:12;12.70;;;4.70;;
34035;SDS011;63481;52.588;22.472;2024-02-15T18:32:14;15.90;;;6.60;;
34035;SDS011;63481;52.588;22.472;2024-02-15T18:42:20;13.60;;;5.30;;
34035;SDS011;63481;52.588;22.472;2024-02-15T18:47:26;14.50;;;4.80;;
34035;SDS011;63481;52.588;22.472;2024-02-15T18:52:28;10.10;;;4.90;;
34035;SDS011;63481;52.588;22.472;2024-02-15T18:57:30;13.70;;;5.90;;
34035;SDS011;63481;52.588;22.472;2024-02-15T19:02:32;11.20;;;5.40;;
34035;SDS011;63481;52.588;22.472;2024-02-15T19:07:33;9.10;;;4.00;;
34035;SDS011;63481;52.588;22.472;2024-02-15T19:12:35;14.80;;;5.50;;
34035;SDS011;63481;52.588;22.472;2024-02-15T19:17:38;20.30;;;11.20;;
34035;SDS011;63481;52.588;22.472;2024-02-15T19:22:41;17.60;;;8.40;;
34035;SDS011;63481;52.588;22.472;2024-02-15T19:27:44;12.60;;;5.80;;
34035;SDS011;63481;52.588;22.472;2024-02-15T19:32:46;13.10;;;6.50;;
34035;SDS011;63481;52.588;22.472;2024-02-15T19:37:49;10.30;;;4.30;;
34035;SDS011;63481;52.588;22.472;2024-02-15T19:42:50;6.80;;;3.40;;
34035;SDS011;63481;52.588;22.472;2024-02-15T19:47:52;13.30;;;4.10;;
34035;SDS011;63481;52.588;22.472;2024-02-15T19:52:56;7.90;;;3.90;;
34035;SDS011;63481;52.588;22.472;2024-02-15T19:57:59;6.90;;;4.00;;
34035;SDS011;63481;52.588;22.472;2024-02-15T20:03:00;10.70;;;3.90;;
34035;SDS011;63481;52.588;22.472;2024-02-15T20:08:05;17.20;;;6.00;;
34035;SDS011;63481;52.588;22.472;2024-02-15T20:13:08;13.10;;;6.70;;
34035;SDS011;63481;52.588;22.472;2024-02-15T20:18:10;15.50;;;5.10;;
34035;SDS011;63481;52.588;22.472;2024-02-15T20:23:12;15.70;;;6.70;;
34035;SDS011;63481;52.588;22.472;2024-02-15T20:28:14;42.50;;;19.30;;
34035;SDS011;63481;52.588;22.472;2024-02-15T20:33:15;40.90;;;18.80;;
34035;SDS011;63481;52.588;22.472;2024-02-15T20:38:18;18.30;;;9.20;;
34035;SDS011;63481;52.588;22.472;2024-02-15T20:43:24;13.60;;;6.50;;
34035;SDS011;63481;52.588;22.472;2024-02-15T20:48:25;12.70;;;7.70;;
34035;SDS011;63481;52.588;22.472;2024-02-15T20:53:28;13.20;;;6.40;;
34035;SDS011;63481;52.588;22.472;2024-02-15T20:58:30;21.80;;;6.80;;
34035;SDS011;63481;52.588;22.472;2024-02-15T21:03:32;19.60;;;9.00;;
34035;SDS011;63481;52.588;22.472;2024-02-15T21:08:33;10.30;;;4.70;;
34035;SDS011;63481;52.588;22.472;2024-02-15T21:13:36;13.10;;;5.30;;
34035;SDS011;63481;52.588;22.472;2024-02-15T21:23:41;87.20;;;37.80;;
34035;SDS011;63481;52.588;22.472;2024-02-15T21:28:43;38.70;;;18.90;;
34035;SDS011;63481;52.588;22.472;2024-02-15T21:33:46;38.00;;;21.40;;
34035;SDS011;63481;52.588;22.472;2024-02-15T21:38:48;15.70;;;9.20;;
34035;SDS011;63481;52.588;22.472;2024-02-15T21:43:52;17.10;;;8.50;;
34035;SDS011;63481;52.588;22.472;2024-02-15T21:48:54;11.10;;;5.20;;
34035;SDS011;63481;52.588;22.472;2024-02-15T21:53:56;19.60;;;8.60;;
34035;SDS011;63481;52.588;22.472;2024-02-15T21:58:57;21.10;;;10.10;;
34035;SDS011;63481;52.588;22.472;2024-02-15T22:03:59;23.10;;;9.40;;
34035;SDS011;63481;52.588;22.472;2024-02-15T22:09:02;7.60;;;4.40;;
34035;SDS011;63481;52.588;22.472;2024-02-15T22:14:06;21.30;;;8.70;;
34035;SDS011;63481;52.588;22.472;2024-02-15T22:19:10;10.00;;;4.70;;
34035;SDS011;63481;52.588;22.472;2024-02-15T22:24:12;11.30;;;4.70;;
34035;SDS011;63481;52.588;22.472;2024-02-15T22:29:14;11.20;;;5.30;;
34035;SDS011;63481;52.588;22.472;2024-02-15T22:34:16;9.20;;;4.40;;
34035;SDS011;63481;52.588;22.472;2024-02-15T22:39:19;10.90;;;5.10;;
34035;SDS011;63481;52.588;22.472;2024-02-15T22:44:21;8.20;;;3.90;;
34035;SDS011;63481;52.588;22.472;2024-02-15T22:49:23;12.40;;;5.20;;
34035;SDS011;63481;52.588;22.472;2024-02-15T22:54:25;51.70;;;24.20;;
34035;SDS011;63481;52.588;22.472;2024-02-15T22:59:27;33.30;;;18.00;;
34035;SDS011;63481;52.588;22.472;2024-02-15T23:04:29;12.70;;;6.60;;
34035;SDS011;63481;52.588;22.472;2024-02-15T23:09:31;13.00;;;6.10;;
34035;SDS011;63481;52.588;22.472;2024-02-15T23:14:33;9.60;;;4.40;;
34035;SDS011;63481;52.588;22.472;2024-02-15T23:19:35;12.10;;;4.70;;
34035;SDS011;63481;52.588;22.472;2024-02-15T23:24:39;12.00;;;5.40;;
34035;SDS011;63481;52.588;22.472;2024-02-15T23:29:40;12.90;;;6.20;;
34035;SDS011;63481;52.588;22.472;2024-02-15T23:34:42;15.90;;;7.00;;
34035;SDS011;63481;52.588;22.472;2024-02-15T23:39:45;10.30;;;5.30;;
34035;SDS011;63481;52.588;22.472;2024-02-15T23:45:05;12.40;;;6.00;;
34035;SDS011;63481;52.588;22.472;2024-02-15T23:50:07;12.30;;;5.00;;
34035;SDS011;63481;52.588;22.472;2024-02-15T23:55:17;11.70;;;5.40;;
